createdAt,value
2023-02-03T00:00:45.176Z,4.92
2023-02-03T00:03:13.106Z,4.91
2023-02-03T00:05:42.196Z,5.08
2023-02-03T00:08:11.230Z,5.14
2023-02-03T00:10:40.887Z,5.22
2023-02-03T00:13:09.827Z,5.20
2023-02-03T00:15:39.253Z,5.27
2023-02-03T00:18:07.040Z,5.24
2023-02-03T00:20:34.901Z,5.14
2023-02-03T00:23:06.376Z,4.91
2023-02-03T00:25:34.940Z,4.82
2023-02-03T00:28:02.726Z,4.70
2023-02-03T00:30:30.844Z,4.84
2023-02-03T00:33:01.510Z,4.87
2023-02-03T00:35:30.182Z,4.97
2023-02-03T00:37:58.654Z,4.84
2023-02-03T00:40:29.911Z,4.68
2023-02-03T00:42:58.024Z,4.58
2023-02-03T00:45:25.786Z,4.27
2023-02-03T00:47:53.715Z,4.38
2023-02-03T00:50:22.854Z,4.32
2023-02-03T00:52:50.615Z,4.14
2023-02-03T00:55:18.583Z,4.01
2023-02-03T00:57:46.636Z,3.94
2023-02-03T01:00:15.633Z,3.72
2023-02-03T01:02:43.467Z,3.94
2023-02-03T01:05:11.319Z,3.79
2023-02-03T01:07:40.462Z,3.96
2023-02-03T01:10:08.906Z,3.97
2023-02-03T01:12:36.644Z,3.99
2023-02-03T01:15:05.274Z,4.02
2023-02-03T01:17:33.173Z,3.72
2023-02-03T01:20:00.980Z,3.75
2023-02-03T01:22:30.355Z,3.93
2023-02-03T01:24:59.502Z,3.90
2023-02-03T01:27:27.320Z,3.92
2023-02-03T01:29:55.358Z,3.93
2023-02-03T01:32:23.151Z,3.99
2023-02-03T01:34:51.080Z,4.03
2023-02-03T01:37:19.118Z,4.10
2023-02-03T01:39:46.849Z,4.03
2023-02-03T01:42:17.334Z,4.18
2023-02-03T01:44:47.916Z,4.26
2023-02-03T01:47:24.181Z,4.51
2023-02-03T01:49:57.446Z,4.59
2023-02-03T01:52:26.281Z,4.73
2023-02-03T01:54:57.937Z,4.85
2023-02-03T01:57:33.117Z,4.88
2023-02-03T02:00:02.381Z,4.77
2023-02-03T02:02:30.596Z,4.79
2023-02-03T02:05:04.279Z,4.72
2023-02-03T02:07:33.763Z,4.26
2023-02-03T02:10:01.792Z,4.72
2023-02-03T02:12:30.930Z,4.90
2023-02-03T02:14:59.761Z,4.86
2023-02-03T02:17:42.436Z,4.92
2023-02-03T02:20:46.338Z,5.01
2023-02-03T02:23:43.517Z,5.03
2023-02-03T02:26:35.729Z,5.16
2023-02-03T02:29:29.602Z,5.26
2023-02-03T02:32:06.584Z,5.27
2023-02-03T02:34:45.962Z,5.27
2023-02-03T02:37:24.004Z,5.32
2023-02-03T02:39:59.460Z,5.31
2023-02-03T02:42:36.207Z,5.36
2023-02-03T02:45:11.732Z,5.31
2023-02-03T02:47:41.371Z,5.44
2023-02-03T02:50:15.578Z,5.47
2023-02-03T02:52:46.181Z,5.50
2023-02-03T02:55:18.386Z,5.50
2023-02-03T02:57:49.113Z,5.52
2023-02-03T03:00:17.103Z,5.48
2023-02-03T03:02:48.236Z,5.56
2023-02-03T03:05:18.926Z,5.66
2023-02-03T03:07:52.177Z,5.62
2023-02-03T03:10:27.605Z,5.66
2023-02-03T03:13:00.372Z,5.69
2023-02-03T03:15:31.558Z,5.67
2023-02-03T03:18:05.093Z,5.64
2023-02-03T03:20:33.930Z,5.60
2023-02-03T03:23:06.562Z,5.70
2023-02-03T03:25:40.825Z,5.63
2023-02-03T03:28:14.993Z,5.57
2023-02-03T03:30:43.247Z,5.64
2023-02-03T03:33:12.435Z,5.56
2023-02-03T03:35:48.134Z,5.64
2023-02-03T03:38:21.484Z,5.62
2023-02-03T03:40:54.781Z,5.58
2023-02-03T03:43:26.637Z,5.47
2023-02-03T03:46:00.134Z,5.40
2023-02-03T03:48:35.045Z,5.21
2023-02-03T03:51:06.580Z,5.31
2023-02-03T03:53:36.661Z,5.20
2023-02-03T03:56:08.594Z,5.23
2023-02-03T03:58:40.644Z,5.09
2023-02-03T04:01:09.373Z,5.19
2023-02-03T04:03:41.710Z,5.15
2023-02-03T04:06:09.493Z,5.10
2023-02-03T04:08:37.466Z,4.98
2023-02-03T04:11:05.493Z,4.96
2023-02-03T04:13:33.532Z,4.91
2023-02-03T04:16:01.719Z,4.94
2023-02-03T04:18:29.672Z,5.01
2023-02-03T04:20:58.855Z,4.95
2023-02-03T04:23:26.976Z,4.87
2023-02-03T04:25:54.828Z,4.73
2023-02-03T04:28:22.926Z,4.73
2023-02-03T04:30:50.657Z,4.60
2023-02-03T04:33:18.401Z,4.55
2023-02-03T04:35:46.138Z,4.44
2023-02-03T04:38:15.259Z,4.44
2023-02-03T04:40:45.450Z,4.40
2023-02-03T04:43:14.250Z,4.49
2023-02-03T04:45:42.175Z,4.51
2023-02-03T04:48:09.986Z,4.54
2023-02-03T04:50:37.734Z,4.62
2023-02-03T04:53:05.489Z,4.58
2023-02-03T04:55:34.614Z,4.54
2023-02-03T04:58:03.103Z,4.49
2023-02-03T05:00:30.984Z,4.57
2023-02-03T05:02:58.839Z,4.60
2023-02-03T05:05:26.678Z,4.90
2023-02-03T05:07:54.422Z,4.96
2023-02-03T05:10:22.201Z,5.12
2023-02-03T05:12:51.436Z,5.14
2023-02-03T05:15:19.143Z,5.05
2023-02-03T05:17:47.022Z,5.07
2023-02-03T05:20:14.854Z,5.14
2023-02-03T05:22:42.648Z,5.13
2023-02-03T05:25:11.103Z,5.13
2023-02-03T05:27:40.109Z,5.13
2023-02-03T05:30:11.041Z,5.13
2023-02-03T05:32:38.872Z,5.10
2023-02-03T05:35:07.316Z,5.10
2023-02-03T05:37:36.057Z,5.00
2023-02-03T05:40:17.789Z,4.82
2023-02-03T05:42:49.498Z,4.88
2023-02-03T05:45:19.500Z,4.82
2023-02-03T05:47:49.406Z,4.76
2023-02-03T05:50:17.245Z,4.81
2023-02-03T05:52:45.283Z,4.80
2023-02-03T05:55:13.008Z,4.90
2023-02-03T05:57:40.838Z,5.05
2023-02-03T06:00:10.120Z,5.13
2023-02-03T06:02:39.241Z,5.19
2023-02-03T06:05:07.968Z,5.19
2023-02-03T06:07:35.949Z,5.20
2023-02-03T06:10:04.057Z,5.17
2023-02-03T06:12:31.801Z,5.11
2023-02-03T06:14:59.627Z,4.93
2023-02-03T06:17:27.485Z,4.87
2023-02-03T06:19:56.612Z,5.01
2023-02-03T06:22:24.807Z,5.04
2023-02-03T06:24:52.525Z,5.16
2023-02-03T06:27:20.292Z,5.11
2023-02-03T06:29:48.390Z,4.95
2023-02-03T06:32:16.187Z,4.96
2023-02-03T06:34:44.027Z,4.93
2023-02-03T06:37:13.269Z,4.95
2023-02-03T06:39:41.025Z,4.94
2023-02-03T06:42:08.839Z,4.92
2023-02-03T06:44:36.962Z,4.91
2023-02-03T06:47:04.786Z,4.92
2023-02-03T06:49:32.557Z,4.90
2023-02-03T06:52:00.320Z,4.74
2023-02-03T06:54:29.435Z,4.59
2023-02-03T06:56:57.190Z,4.64
2023-02-03T06:59:24.938Z,4.57
2023-02-03T07:01:53.010Z,4.36
2023-02-03T07:04:20.813Z,4.60
2023-02-03T07:06:48.604Z,4.48
2023-02-03T07:09:16.596Z,4.33
2023-02-03T07:11:45.706Z,4.13
2023-02-03T07:14:13.542Z,4.09
2023-02-03T07:16:41.485Z,4.19
2023-02-03T07:19:09.406Z,4.28
2023-02-03T07:21:37.157Z,4.38
2023-02-03T07:24:05.471Z,4.37
2023-02-03T07:26:33.252Z,4.64
2023-02-03T07:29:02.397Z,4.96
2023-02-03T07:31:30.242Z,5.12
2023-02-03T07:33:59.565Z,5.27
2023-02-03T07:36:28.120Z,5.19
2023-02-03T07:38:56.324Z,5.30
2023-02-03T07:41:24.313Z,5.41
2023-02-03T07:43:52.049Z,5.64
2023-02-03T07:46:21.190Z,5.97
2023-02-03T07:48:49.016Z,6.00
2023-02-03T07:51:16.825Z,6.37
2023-02-03T07:53:44.626Z,6.56
2023-02-03T07:56:13.073Z,6.85
2023-02-03T07:58:40.952Z,6.92
2023-02-03T08:01:14.061Z,7.15
2023-02-03T08:03:43.737Z,7.04
2023-02-03T08:06:11.963Z,7.13
2023-02-03T08:08:41.408Z,6.81
2023-02-03T08:11:09.282Z,6.64
2023-02-03T08:13:37.191Z,6.75
2023-02-03T08:16:05.541Z,6.73
2023-02-03T08:18:33.363Z,6.73
2023-02-03T08:21:04.095Z,6.53
2023-02-03T08:23:32.209Z,6.91
2023-02-03T08:25:59.961Z,7.16
2023-02-03T08:28:27.743Z,7.29
2023-02-03T08:30:56.557Z,7.31
2023-02-03T08:33:24.569Z,7.25
2023-02-03T08:35:52.648Z,7.14
2023-02-03T08:38:22.610Z,7.25
2023-02-03T08:40:50.460Z,7.05
2023-02-03T08:43:18.222Z,7.29
2023-02-03T08:45:46.066Z,7.36
2023-02-03T08:48:13.960Z,7.65
2023-02-03T08:50:44.479Z,7.53
2023-02-03T08:53:12.616Z,7.97
2023-02-03T08:55:41.883Z,7.74
2023-02-03T08:58:09.690Z,8.15
2023-02-03T09:00:37.525Z,8.04
2023-02-03T09:03:07.842Z,7.78
2023-02-03T09:05:36.538Z,8.00
2023-02-03T09:08:04.979Z,7.93
2023-02-03T09:10:33.028Z,8.41
2023-02-03T09:13:02.569Z,8.55
2023-02-03T09:15:30.374Z,8.77
2023-02-03T09:17:58.127Z,8.86
2023-02-03T09:20:26.538Z,9.02
2023-02-03T09:22:55.113Z,9.51
2023-02-03T09:25:22.873Z,9.85
2023-02-03T09:27:50.720Z,8.88
2023-02-03T09:30:20.231Z,8.87
2023-02-03T09:32:54.320Z,9.36
2023-02-03T09:35:22.237Z,9.30
2023-02-03T09:37:50.023Z,9.31
2023-02-03T09:40:23.194Z,9.45
2023-02-03T09:43:03.546Z,9.05
2023-02-03T09:45:33.428Z,9.43
2023-02-03T09:48:06.899Z,9.75
2023-02-03T09:50:37.403Z,9.72
2023-02-03T09:53:11.946Z,10.06
2023-02-03T09:55:42.718Z,10.46
2023-02-03T09:58:13.807Z,10.39
2023-02-03T10:00:45.622Z,9.79
2023-02-03T10:03:23.310Z,9.83
2023-02-03T10:06:03.629Z,9.71
2023-02-03T10:08:44.940Z,9.33
2023-02-03T10:11:23.930Z,9.59
2023-02-03T10:14:04.623Z,9.44
2023-02-03T10:16:54.313Z,9.70
2023-02-03T10:19:28.107Z,9.73
2023-02-03T10:22:00.155Z,10.02
2023-02-03T10:24:28.621Z,9.87
2023-02-03T10:26:56.826Z,9.76
2023-02-03T10:29:33.994Z,9.49
2023-02-03T10:32:03.553Z,9.09
2023-02-03T10:34:31.383Z,9.05
2023-02-03T10:37:03.141Z,9.50
2023-02-03T10:39:35.660Z,9.70
2023-02-03T10:42:06.401Z,9.65
2023-02-03T10:44:40.087Z,9.13
2023-02-03T10:47:26.318Z,9.38
2023-02-03T10:49:56.495Z,9.57
2023-02-03T10:52:30.202Z,9.76
2023-02-03T10:54:59.445Z,8.84
2023-02-03T10:57:30.617Z,8.86
2023-02-03T11:00:22.761Z,9.02
2023-02-03T11:03:00.171Z,8.87
2023-02-03T11:05:28.109Z,9.32
2023-02-03T11:07:56.356Z,9.72
2023-02-03T11:10:28.569Z,9.83
2023-02-03T11:13:13.061Z,9.55
2023-02-03T11:15:46.465Z,9.76
2023-02-03T11:18:53.090Z,9.44
2023-02-03T11:21:23.351Z,10.05
2023-02-03T11:23:58.784Z,10.27
2023-02-03T11:26:30.618Z,10.07
2023-02-03T11:29:00.571Z,10.68
2023-02-03T11:31:30.683Z,10.46
2023-02-03T11:34:03.527Z,10.53
2023-02-03T11:36:33.730Z,10.27
2023-02-03T11:39:22.044Z,9.70
2023-02-03T11:41:50.240Z,9.96
2023-02-03T11:44:21.057Z,9.81
2023-02-03T11:46:52.141Z,10.00
2023-02-03T11:49:55.715Z,10.05
2023-02-03T11:52:41.167Z,9.84
2023-02-03T11:55:21.209Z,9.87
2023-02-03T11:58:01.811Z,10.13
2023-02-03T12:00:36.548Z,10.10
2023-02-03T12:03:19.343Z,10.44
2023-02-03T12:06:03.292Z,10.66
2023-02-03T12:08:51.591Z,10.63
2023-02-03T12:11:30.823Z,10.75
2023-02-03T12:14:16.276Z,10.49
2023-02-03T12:17:05.486Z,10.16
2023-02-03T12:19:44.292Z,10.12
2023-02-03T12:22:24.935Z,9.83
2023-02-03T12:25:04.208Z,10.09
2023-02-03T12:27:43.192Z,9.93
2023-02-03T12:30:16.873Z,9.98
2023-02-03T12:32:50.729Z,9.67
2023-02-03T12:35:22.638Z,9.48
2023-02-03T12:37:55.765Z,9.24
2023-02-03T12:40:36.003Z,9.50
2023-02-03T12:43:19.494Z,9.24
2023-02-03T12:45:54.234Z,9.33
2023-02-03T12:48:27.106Z,9.11
2023-02-03T12:51:00.084Z,9.25
2023-02-03T12:53:32.767Z,9.09
2023-02-03T12:56:10.790Z,8.95
2023-02-03T12:58:42.091Z,8.95
2023-02-03T13:01:16.979Z,9.01
2023-02-03T13:03:50.104Z,9.10
2023-02-03T13:06:25.710Z,9.22
2023-02-03T13:08:59.278Z,9.16
2023-02-03T13:11:34.929Z,9.08
2023-02-03T13:14:09.139Z,9.09
2023-02-03T13:16:42.023Z,8.95
2023-02-03T13:19:16.270Z,8.95
2023-02-03T13:21:46.578Z,8.88
2023-02-03T13:24:14.411Z,9.05
2023-02-03T13:27:04.982Z,8.99
2023-02-03T13:29:51.499Z,8.73
2023-02-03T13:32:33.887Z,8.84
2023-02-03T13:35:33.229Z,8.95
2023-02-03T13:38:18.068Z,9.07
2023-02-03T13:40:57.365Z,9.16
2023-02-03T13:43:38.312Z,9.09
2023-02-03T13:46:09.469Z,9.03
2023-02-03T13:48:38.194Z,9.14
2023-02-03T13:51:09.804Z,9.24
2023-02-03T13:53:40.324Z,9.24
2023-02-03T13:56:10.428Z,9.40
2023-02-03T13:58:40.754Z,9.36
2023-02-03T14:01:33.255Z,9.15
2023-02-03T14:04:02.321Z,9.21
2023-02-03T14:06:59.842Z,9.28
2023-02-03T14:09:47.098Z,9.15
2023-02-03T14:12:36.896Z,8.84
2023-02-03T14:15:33.700Z,8.97
2023-02-03T14:18:35.488Z,9.08
2023-02-03T14:21:22.713Z,8.92
2023-02-03T14:24:08.759Z,9.00
2023-02-03T14:26:41.600Z,8.98
2023-02-03T14:29:11.545Z,8.88
2023-02-03T14:31:59.831Z,8.85
2023-02-03T14:34:34.401Z,8.89
2023-02-03T14:37:16.513Z,8.97
2023-02-03T14:40:26.693Z,8.97
2023-02-03T14:43:20.684Z,8.20
2023-02-03T14:46:04.795Z,8.64
2023-02-03T14:48:49.114Z,8.55
2023-02-03T14:51:30.452Z,8.65
2023-02-03T14:54:12.171Z,8.71
2023-02-03T14:57:06.803Z,8.66
2023-02-03T14:59:41.069Z,8.71
2023-02-03T15:02:12.653Z,8.75
2023-02-03T15:04:42.319Z,8.48
2023-02-03T15:07:10.228Z,8.56
2023-02-03T15:09:43.117Z,8.52
2023-02-03T15:12:21.195Z,8.49
2023-02-03T15:14:48.981Z,8.20
2023-02-03T15:17:24.547Z,8.20
2023-02-03T15:19:58.649Z,8.22
2023-02-03T15:22:28.612Z,8.07
2023-02-03T15:24:58.741Z,8.05
2023-02-03T15:27:28.562Z,7.86
2023-02-03T15:29:58.916Z,7.93
2023-02-03T15:32:31.510Z,7.96
2023-02-03T15:35:04.226Z,7.84
2023-02-03T15:37:37.171Z,7.96
2023-02-03T15:40:09.974Z,7.83
2023-02-03T15:42:40.686Z,7.88
2023-02-03T15:45:18.569Z,7.81
2023-02-03T15:47:52.214Z,7.80
2023-02-03T15:50:34.305Z,7.81
2023-02-03T15:53:10.222Z,7.79
2023-02-03T15:55:43.071Z,7.64
2023-02-03T15:58:19.209Z,7.48
2023-02-03T16:00:50.949Z,7.51
2023-02-03T16:03:22.097Z,7.59
2023-02-03T16:05:52.419Z,7.47
2023-02-03T16:08:29.398Z,7.61
2023-02-03T16:10:57.436Z,7.50
2023-02-03T16:13:26.715Z,7.58
2023-02-03T16:16:01.464Z,7.60
2023-02-03T16:18:29.331Z,7.52
2023-02-03T16:20:58.576Z,7.47
2023-02-03T16:23:27.611Z,7.42
2023-02-03T16:26:06.605Z,7.34
2023-02-03T16:28:52.547Z,7.16
2023-02-03T16:31:39.893Z,7.23
2023-02-03T16:34:32.454Z,7.28
2023-02-03T16:37:19.033Z,7.20
2023-02-03T16:40:04.283Z,7.07
2023-02-03T16:42:56.710Z,7.05
2023-02-03T16:45:42.006Z,7.08
2023-02-03T16:48:29.900Z,7.04
2023-02-03T16:50:59.577Z,6.85
2023-02-03T16:53:30.325Z,6.98
2023-02-03T16:55:59.796Z,6.88
2023-02-03T16:58:27.827Z,6.96
2023-02-03T17:00:56.626Z,7.05
2023-02-03T17:03:26.189Z,6.99
2023-02-03T17:05:54.651Z,7.03
2023-02-03T17:08:24.541Z,7.03
2023-02-03T17:10:53.837Z,7.14
2023-02-03T17:13:24.550Z,7.12
2023-02-03T17:15:53.597Z,7.20
2023-02-03T17:18:21.707Z,7.18
2023-02-03T17:20:49.587Z,7.16
2023-02-03T17:23:17.791Z,7.12
2023-02-03T17:25:46.735Z,7.09
2023-02-03T17:28:16.530Z,7.08
2023-02-03T17:30:44.616Z,7.03
2023-02-03T17:33:13.150Z,6.95
2023-02-03T17:35:42.767Z,6.87
2023-02-03T17:38:10.964Z,6.68
2023-02-03T17:54:34.288Z,6.64
2023-02-03T17:57:02.214Z,6.72
2023-02-03T17:59:31.364Z,6.75
2023-02-03T18:01:59.107Z,6.80
2023-02-03T18:04:26.966Z,6.78
2023-02-03T18:06:54.744Z,6.66
2023-02-03T18:09:23.704Z,6.71
2023-02-03T18:11:51.471Z,7.40
2023-02-03T18:14:19.220Z,6.88
2023-02-03T18:16:48.347Z,6.89
2023-02-03T18:19:16.948Z,6.84
2023-02-03T18:21:45.710Z,6.84
2023-02-03T18:24:15.022Z,6.95
2023-02-03T18:26:49.442Z,6.94
2023-02-03T18:29:19.165Z,6.91
2023-02-03T18:31:49.177Z,6.92
2023-02-03T18:34:17.681Z,6.91
2023-02-03T18:36:45.654Z,6.98
2023-02-03T18:39:15.690Z,7.02
2023-02-03T18:41:43.573Z,7.00
2023-02-03T18:44:11.360Z,6.99
2023-02-03T18:46:39.203Z,6.99
2023-02-03T18:49:10.469Z,7.10
2023-02-03T18:51:38.604Z,6.88
2023-02-03T18:54:07.816Z,7.06
2023-02-03T18:56:36.005Z,7.07
2023-02-03T18:59:09.434Z,7.12
2023-02-03T19:01:39.213Z,7.07
2023-02-03T19:04:08.940Z,7.01
2023-02-03T19:06:37.265Z,7.14
2023-02-03T19:09:06.440Z,7.13
2023-02-03T19:11:35.116Z,7.12
2023-02-03T19:14:03.075Z,7.21
2023-02-03T19:16:31.671Z,7.18
2023-02-03T19:18:59.572Z,7.16
2023-02-03T19:21:28.769Z,7.25
2023-02-03T19:23:56.643Z,7.17
2023-02-03T19:26:24.408Z,7.16
2023-02-03T19:28:52.699Z,7.27
2023-02-03T19:31:20.627Z,7.28
2023-02-03T19:33:48.457Z,7.29
2023-02-03T19:36:16.791Z,7.29
2023-02-03T19:38:46.422Z,7.24
2023-02-03T19:41:14.207Z,7.23
2023-02-03T19:43:42.041Z,7.17
2023-02-03T19:46:10.164Z,7.22
2023-02-03T19:48:38.626Z,7.17
2023-02-03T19:51:07.514Z,7.19
2023-02-03T19:53:35.277Z,7.17
2023-02-03T19:56:04.755Z,7.24
2023-02-03T19:58:33.248Z,7.18
2023-02-03T20:01:01.033Z,7.23
2023-02-03T20:03:28.757Z,7.25
2023-02-03T20:05:56.529Z,7.23
2023-02-03T20:08:24.353Z,7.19
2023-02-03T20:10:52.488Z,7.19
2023-02-03T20:13:21.814Z,7.22
2023-02-03T20:15:49.624Z,7.16
2023-02-03T20:18:17.410Z,7.24
2023-02-03T20:20:45.186Z,7.19
2023-02-03T20:23:12.885Z,7.26
2023-02-03T20:25:40.602Z,7.27
2023-02-03T20:28:08.583Z,7.20
2023-02-03T20:30:38.714Z,7.27
2023-02-03T20:33:06.454Z,7.14
2023-02-03T20:35:34.411Z,7.17
2023-02-03T20:38:02.197Z,7.15
2023-02-03T20:40:30.324Z,7.22
2023-02-03T20:43:02.543Z,7.27
2023-02-03T20:45:31.111Z,7.26
2023-02-03T20:48:01.035Z,7.27
2023-02-03T20:50:40.626Z,7.30
2023-02-03T20:53:14.435Z,7.32
2023-02-03T20:55:42.819Z,7.35
2023-02-03T20:58:19.100Z,7.44
2023-02-03T21:00:49.510Z,7.37
2023-02-03T21:03:34.747Z,7.40
2023-02-03T21:06:03.182Z,7.33
2023-02-03T21:08:31.203Z,7.20
2023-02-03T21:10:58.999Z,7.26
2023-02-03T21:13:28.606Z,7.31
2023-02-03T21:15:59.557Z,7.26
2023-02-03T21:18:35.188Z,7.31
2023-02-03T21:21:03.771Z,7.28
2023-02-03T21:23:38.812Z,7.37
2023-02-03T21:26:19.323Z,7.35
2023-02-03T21:28:51.501Z,7.27
2023-02-03T21:31:26.104Z,7.34
2023-02-03T21:33:57.471Z,7.24
2023-02-03T21:36:27.918Z,7.33
2023-02-03T21:38:57.340Z,7.29
2023-02-03T21:41:26.676Z,7.27
2023-02-03T21:43:55.809Z,7.32
2023-02-03T21:46:26.729Z,7.30
2023-02-03T21:48:56.906Z,7.20
2023-02-03T21:51:26.693Z,7.30
2023-02-03T21:53:56.464Z,7.21
2023-02-03T21:56:26.727Z,7.60
2023-02-03T21:58:57.558Z,7.22
2023-02-03T22:01:26.881Z,7.23
2023-02-03T22:03:58.986Z,7.25
2023-02-03T22:06:27.578Z,7.23
2023-02-03T22:08:57.089Z,7.28
2023-02-03T22:11:26.938Z,7.22
2023-02-03T22:13:58.143Z,7.19
2023-02-03T22:16:28.852Z,7.24
2023-02-03T22:18:58.480Z,7.19
2023-02-03T22:21:27.583Z,7.18
2023-02-03T22:23:55.792Z,7.05
2023-02-03T22:26:23.735Z,7.12
2023-02-03T22:28:51.789Z,7.15
2023-02-03T22:31:20.527Z,7.21
2023-02-03T22:33:49.071Z,7.28
2023-02-03T22:36:18.237Z,7.27
2023-02-03T22:38:46.133Z,7.29
2023-02-03T22:41:13.945Z,7.23
2023-02-03T22:43:41.925Z,7.14
2023-02-03T22:46:10.039Z,7.12
2023-02-03T22:48:38.676Z,7.10
2023-02-03T22:51:06.876Z,7.05
2023-02-03T22:53:36.275Z,7.09
2023-02-03T22:56:04.190Z,7.01
2023-02-03T22:58:32.008Z,7.09
2023-02-03T23:00:59.843Z,7.11
2023-02-03T23:03:27.913Z,7.14
2023-02-03T23:05:56.940Z,7.11
2023-02-03T23:08:25.007Z,7.11
2023-02-03T23:10:54.136Z,7.15
2023-02-03T23:13:22.013Z,7.09
2023-02-03T23:15:49.783Z,6.93
2023-02-03T23:18:17.677Z,6.91
2023-02-03T23:20:45.459Z,6.90
2023-02-03T23:23:14.127Z,6.85
2023-02-03T23:25:41.929Z,6.68
2023-02-03T23:28:11.217Z,6.59
2023-02-03T23:30:38.962Z,6.57
2023-02-03T23:33:06.951Z,6.61
2023-02-03T23:35:45.706Z,6.56
2023-02-03T23:38:13.612Z,6.50
2023-02-03T23:40:44.818Z,6.33
2023-02-03T23:43:14.830Z,6.39
2023-02-03T23:45:42.634Z,6.34
2023-02-03T23:48:10.384Z,6.27
2023-02-03T23:50:38.169Z,6.32
2023-02-03T23:53:05.978Z,6.27
2023-02-03T23:55:33.713Z,6.26
2023-02-03T23:58:01.612Z,6.28
